Time;durP1;ratioP1;P1;durP2;ratioP2;P2;SDS_P1;SDS_P2;PMS_P1;PMS_P2;Temp;Humidity;BMP_temperature;BMP_pressure;BME280_temperature;BME280_humidity;BME280_pressure;Samples;Min_cycle;Max_cycle;Signal;HPM_P1;HPM_P2
2023/06/25 00:01:15;;;;;;;6.10;3.72;;;;;;;-145.69;nan;52036.44;5074513;28;20231;-92
2023/06/25 00:03:42;;;;;;;7.22;4.05;;;;;;;-145.69;nan;52028.53;5075296;28;20642;-92
2023/06/25 00:06:08;;;;;;;6.93;3.60;;;;;;;-145.69;nan;52008.72;5074724;28;20256;-92
2023/06/25 00:08:35;;;;;;;6.85;3.70;;;;;;;-145.69;nan;52038.44;5063758;28;20198;-92
2023/06/25 00:11:03;;;;;;;6.10;4.13;;;;;;;-145.69;nan;52032.47;5054917;28;20674;-92
2023/06/25 00:13:29;;;;;;;6.22;3.83;;;;;;;-145.69;nan;52024.56;5054836;28;20203;-92
2023/06/25 00:15:56;;;;;;;6.70;4.57;;;;;;;-145.69;nan;52032.47;5054844;28;20203;-92
2023/06/25 00:18:25;;;;;;;5.05;3.55;;;;;;;-145.69;nan;52046.34;5054457;28;20213;-92
2023/06/25 00:20:51;;;;;;;5.63;3.88;;;;;;;-145.69;nan;52056.25;5070660;28;20202;-91
2023/06/25 00:23:18;;;;;;;6.18;3.70;;;;;;;-145.69;nan;52040.41;5074312;28;20230;-91
2023/06/25 00:25:45;;;;;;;6.53;3.90;;;;;;;-145.69;nan;52034.47;5074714;28;20234;-92
2023/06/25 00:28:13;;;;;;;5.28;3.92;;;;;;;-145.69;nan;51992.88;5074512;28;20252;-91
2023/06/25 00:30:39;;;;;;;6.53;3.53;;;;;;;-145.69;nan;52018.63;5074824;28;20289;-92
2023/06/25 00:33:06;;;;;;;8.10;3.88;;;;;;;-145.69;nan;52036.44;5074423;28;20645;-92
2023/06/25 00:36:02;;;;;;;5.88;4.00;;;;;;;-145.69;nan;52030.50;5074652;28;20209;-92
2023/06/25 00:38:29;;;;;;;7.47;3.67;;;;;;;-145.69;nan;52050.31;5074418;28;20252;-92
2023/06/25 00:40:55;;;;;;;6.05;3.97;;;;;;;-145.69;nan;52040.41;5074658;28;20570;-91
2023/06/25 00:43:23;;;;;;;6.88;4.05;;;;;;;-145.69;nan;52022.59;5074014;28;20454;-91
2023/06/25 00:45:50;;;;;;;5.97;3.78;;;;;;;-145.69;nan;52016.66;5074798;28;20198;-92
2023/06/25 00:48:16;;;;;;;8.90;3.85;;;;;;;-145.69;nan;52020.59;5074776;28;20309;-92
2023/06/25 00:50:43;;;;;;;8.87;4.20;;;;;;;-145.69;nan;52056.25;5074276;28;20257;-92
2023/06/25 00:53:10;;;;;;;7.03;4.15;;;;;;;-145.69;nan;52070.09;5074188;28;20222;-91
2023/06/25 00:55:37;;;;;;;6.37;3.93;;;;;;;-145.69;nan;52068.13;5074378;28;20199;-91
2023/06/25 00:58:05;;;;;;;7.65;4.00;;;;;;;-145.69;nan;52024.56;5074488;28;20210;-91
2023/06/25 01:00:34;;;;;;;5.60;3.70;;;;;;;-145.69;nan;52056.25;5074190;28;20211;-92
2023/06/25 01:03:07;;;;;;;5.70;3.75;;;;;;;-145.69;nan;52066.16;5074293;28;20227;-92
2023/06/25 01:05:43;;;;;;;6.80;3.75;;;;;;;-145.69;nan;52010.69;5074635;28;20202;-91
2023/06/25 01:08:12;;;;;;;6.03;4.00;;;;;;;-145.69;nan;52022.59;5073718;28;20301;-91
2023/06/25 01:10:39;;;;;;;5.30;3.47;;;;;;;-145.69;nan;52038.44;5074024;28;20202;-90
2023/06/25 01:13:07;;;;;;;7.00;4.00;;;;;;;-145.69;nan;52036.44;5074286;28;20285;-91
2023/06/25 01:15:35;;;;;;;8.40;4.22;;;;;;;-145.69;nan;52032.47;5074180;28;20195;-91
2023/06/25 01:18:02;;;;;;;7.60;4.07;;;;;;;-145.69;nan;52048.31;5074101;28;20642;-90
2023/06/25 01:20:29;;;;;;;6.07;3.60;;;;;;;-145.69;nan;52070.09;5074144;28;20213;-91
2023/06/25 01:22:58;;;;;;;5.85;4.20;;;;;;;-145.69;nan;52012.69;5074752;28;20226;-91
2023/06/25 01:25:25;;;;;;;5.67;3.80;;;;;;;-145.69;nan;52042.38;5078003;28;20209;-91
2023/06/25 01:27:52;;;;;;;5.40;3.70;;;;;;;-145.69;nan;52032.47;5077906;28;20203;-91
2023/06/25 01:30:20;;;;;;;10.50;3.60;;;;;;;-145.69;nan;52052.28;5077464;28;20220;-91
2023/06/25 01:32:46;;;;;;;5.57;3.90;;;;;;;-145.69;nan;52064.16;5077927;28;20206;-91
2023/06/25 01:35:14;;;;;;;6.00;3.80;;;;;;;-145.69;nan;52038.44;5077993;28;20230;-92
2023/06/25 01:37:40;;;;;;;8.27;4.00;;;;;;;-145.69;nan;52032.47;5077793;28;20206;-91
2023/06/25 01:40:10;;;;;;;7.22;3.80;;;;;;;-145.69;nan;52060.22;5077651;28;20202;-91
2023/06/25 01:42:37;;;;;;;6.20;3.88;;;;;;;-145.69;nan;52032.47;5077532;28;20326;-91
2023/06/25 01:45:05;;;;;;;8.45;4.07;;;;;;;-145.69;nan;52054.25;5077568;28;20187;-91
2023/06/25 01:47:31;;;;;;;8.43;4.30;;;;;;;-145.69;nan;52032.47;5077783;28;20199;-90
2023/06/25 01:49:58;;;;;;;6.72;3.80;;;;;;;-145.69;nan;52052.28;5077180;28;20231;-91
2023/06/25 01:52:24;;;;;;;5.93;4.07;;;;;;;-145.69;nan;52038.44;5077382;28;20237;-91
2023/06/25 01:54:51;;;;;;;6.53;4.20;;;;;;;-145.69;nan;52068.13;5077362;28;20673;-90
2023/06/25 01:57:19;;;;;;;7.53;4.93;;;;;;;-145.69;nan;52036.44;5077483;28;20223;-91
2023/06/25 01:59:46;;;;;;;5.85;4.20;;;;;;;-145.69;nan;52008.72;5076949;28;20294;-91
2023/06/25 02:02:12;;;;;;;8.43;4.18;;;;;;;-145.69;nan;52036.44;5077063;28;20249;-91
2023/06/25 02:04:39;;;;;;;6.88;4.15;;;;;;;-145.69;nan;52044.38;5077071;28;20222;-90
2023/06/25 02:07:06;;;;;;;5.55;4.00;;;;;;;-145.69;nan;52074.06;5077050;28;20293;-92
2023/06/25 02:09:33;;;;;;;7.07;4.50;;;;;;;-145.69;nan;52052.28;5077204;28;20290;-90
2023/06/25 02:11:59;;;;;;;5.80;4.10;;;;;;;-145.69;nan;52048.31;5076959;28;20194;-91
2023/06/25 02:14:27;;;;;;;6.37;4.17;;;;;;;-145.69;nan;52080.00;5077446;28;20293;-91
2023/06/25 02:16:54;;;;;;;6.37;4.40;;;;;;;-145.69;nan;52054.25;5076836;28;20224;-90
2023/06/25 02:19:20;;;;;;;7.90;4.17;;;;;;;-145.69;nan;52034.47;5076867;28;20237;-90
2023/06/25 02:21:47;;;;;;;6.90;3.97;;;;;;;-145.69;nan;52052.28;5076987;28;20210;-90
2023/06/25 02:24:14;;;;;;;9.40;4.20;;;;;;;-145.69;nan;52024.56;5076479;28;20684;-90
2023/06/25 02:26:40;;;;;;;6.55;3.95;;;;;;;-145.69;nan;52052.28;5076917;28;20198;-90
2023/06/25 02:29:07;;;;;;;6.43;3.67;;;;;;;-145.69;nan;52026.53;5076723;28;20596;-90
2023/06/25 02:31:35;;;;;;;7.37;4.43;;;;;;;-145.69;nan;52060.22;5076653;28;20203;-90
2023/06/25 02:34:02;;;;;;;8.83;4.23;;;;;;;-145.69;nan;52076.03;5076491;28;20206;-91
2023/06/25 02:36:28;;;;;;;6.93;4.70;;;;;;;-145.69;nan;52032.47;5076582;28;20198;-91
2023/06/25 02:38:55;;;;;;;9.43;4.17;;;;;;;-145.69;nan;52083.97;5076514;28;20198;-92
2023/06/25 02:41:22;;;;;;;6.63;4.45;;;;;;;-145.69;nan;52032.47;5076564;28;20658;-91
2023/06/25 02:43:48;;;;;;;8.32;4.00;;;;;;;-145.69;nan;52078.03;5076330;28;20233;-91
2023/06/25 02:46:15;;;;;;;7.00;4.03;;;;;;;-145.69;nan;52072.09;5076470;28;20225;-91
2023/06/25 02:48:43;;;;;;;7.73;4.63;;;;;;;-145.69;nan;52040.41;5075167;28;20231;-91
2023/06/25 02:51:10;;;;;;;6.23;3.90;;;;;;;-145.69;nan;52040.41;5076176;28;20198;-90
2023/06/25 02:53:36;;;;;;;6.53;4.20;;;;;;;-145.69;nan;52036.44;5076567;28;20232;-91
2023/06/25 02:56:03;;;;;;;6.97;4.63;;;;;;;-145.69;nan;52060.22;5076349;28;20218;-91
2023/06/25 02:58:30;;;;;;;6.27;4.03;;;;;;;-145.69;nan;52068.13;5076238;28;20255;-91
2023/06/25 03:00:56;;;;;;;7.30;4.30;;;;;;;-145.69;nan;52064.16;5075827;28;20557;-90
2023/06/25 03:03:23;;;;;;;7.68;3.92;;;;;;;-145.69;nan;52032.47;5075622;28;20241;-91
2023/06/25 03:05:51;;;;;;;7.70;4.60;;;;;;;-145.69;nan;52080.00;5076020;28;20226;-91
2023/06/25 03:08:18;;;;;;;6.60;4.60;;;;;;;-145.69;nan;52050.31;5076092;28;20232;-91
2023/06/25 03:10:45;;;;;;;10.05;4.70;;;;;;;-145.69;nan;52044.38;5076124;28;20281;-92
2023/06/25 03:13:12;;;;;;;9.90;4.57;;;;;;;-145.69;nan;52064.16;5075910;28;20671;-91
2023/06/25 03:15:39;;;;;;;6.32;3.88;;;;;;;-145.69;nan;52046.34;5075745;28;20272;-91
2023/06/25 03:18:05;;;;;;;6.00;4.10;;;;;;;-145.69;nan;52056.25;5075661;28;20289;-92
2023/06/25 03:20:32;;;;;;;6.37;4.40;;;;;;;-145.69;nan;52050.31;5075789;28;20202;-91
2023/06/25 03:23:00;;;;;;;6.63;4.43;;;;;;;-145.69;nan;52066.16;5075785;28;20313;-91
2023/06/25 03:25:27;;;;;;;4.85;3.55;;;;;;;-145.69;nan;52046.34;5076049;28;20202;-91
2023/06/25 03:27:53;;;;;;;7.03;4.40;;;;;;;-145.69;nan;52068.13;5075438;28;20218;-90
2023/06/25 03:30:20;;;;;;;7.33;4.13;;;;;;;-145.69;nan;52048.31;5075727;28;20207;-90
2023/06/25 03:32:47;;;;;;;8.50;4.47;;;;;;;-145.69;nan;52064.16;5075536;28;20203;-91
2023/06/25 03:35:13;;;;;;;8.17;4.23;;;;;;;-145.69;nan;52064.16;5075652;28;20198;-90
2023/06/25 03:37:40;;;;;;;7.57;4.10;;;;;;;-145.69;nan;52070.09;5075680;28;20207;-90
2023/06/25 03:40:10;;;;;;;5.90;4.10;;;;;;;-145.69;nan;52078.03;5075449;28;20202;-91
2023/06/25 03:42:36;;;;;;;6.77;4.20;;;;;;;-145.69;nan;52070.09;5075245;28;20230;-90
2023/06/25 03:45:03;;;;;;;7.03;4.20;;;;;;;-145.69;nan;52080.00;5075216;28;20203;-90
2023/06/25 03:47:30;;;;;;;6.90;4.40;;;;;;;-145.69;nan;52056.25;5074938;28;20294;-91
2023/06/25 03:49:56;;;;;;;9.63;4.22;;;;;;;-145.69;nan;52089.91;5075041;28;20238;-90
2023/06/25 03:52:23;;;;;;;8.97;4.20;;;;;;;-145.69;nan;52070.09;5074862;28;20222;-91
2023/06/25 03:54:50;;;;;;;8.17;4.30;;;;;;;-145.69;nan;52048.31;5075057;28;20230;-91
2023/06/25 03:57:22;;;;;;;8.40;4.43;;;;;;;-145.69;nan;52083.97;5074898;28;20202;-91
2023/06/25 03:59:48;;;;;;;7.90;4.80;;;;;;;-145.69;nan;52068.13;5075123;28;20203;-92
2023/06/25 04:02:15;;;;;;;5.60;4.20;;;;;;;-145.69;nan;52080.00;5074768;28;20402;-91
2023/06/25 04:04:42;;;;;;;6.47;4.13;;;;;;;-145.69;nan;52056.25;5075011;28;20198;-90
2023/06/25 04:07:08;;;;;;;6.77;4.10;;;;;;;-145.69;nan;52091.88;5074852;28;20565;-91
2023/06/25 04:09:35;;;;;;;5.80;3.70;;;;;;;-145.69;nan;52080.00;5074972;28;20248;-91
2023/06/25 04:12:01;;;;;;;6.07;4.10;;;;;;;-145.69;nan;52097.84;5074655;28;20209;-89
2023/06/25 04:14:29;;;;;;;8.65;4.10;;;;;;;-145.69;nan;52052.28;5074987;28;20211;-91
2023/06/25 04:16:56;;;;;;;8.30;3.83;;;;;;;-145.69;nan;52087.94;5074698;28;20207;-91
2023/06/25 04:19:22;;;;;;;9.35;4.40;;;;;;;-145.69;nan;52046.34;5074694;28;20210;-90
2023/06/25 04:21:49;;;;;;;5.55;3.65;;;;;;;-145.69;nan;52032.47;5074716;28;20654;-91
2023/06/25 04:24:15;;;;;;;7.20;3.80;;;;;;;-145.69;nan;52054.25;5074362;28;20254;-91
2023/06/25 04:26:42;;;;;;;5.35;3.78;;;;;;;-145.69;nan;52072.09;5074669;28;20203;-91
2023/06/25 04:29:09;;;;;;;10.17;4.33;;;;;;;-145.69;nan;52087.94;5074378;28;20230;-90
2023/06/25 04:31:36;;;;;;;5.28;3.92;;;;;;;-145.69;nan;52054.25;5074565;28;20206;-91
2023/06/25 04:34:03;;;;;;;5.88;3.80;;;;;;;-145.69;nan;52078.03;5074705;28;20286;-91
2023/06/25 04:36:30;;;;;;;6.93;4.17;;;;;;;-145.69;nan;52072.09;5074818;28;20199;-92
2023/06/25 04:38:56;;;;;;;5.85;4.15;;;;;;;-145.69;nan;52064.16;5074471;28;20633;-91
2023/06/25 04:41:23;;;;;;;7.23;4.50;;;;;;;-145.69;nan;52064.16;5074641;28;20203;-92
2023/06/25 04:43:49;;;;;;;7.97;4.45;;;;;;;-145.69;nan;52044.38;5074026;28;20239;-91
2023/06/25 04:46:16;;;;;;;8.25;4.38;;;;;;;-145.69;nan;52056.25;5074184;28;20195;-91
2023/06/25 04:48:47;;;;;;;6.18;3.83;;;;;;;-145.69;nan;52091.88;5073972;28;20242;-91
2023/06/25 04:51:14;;;;;;;6.87;3.90;;;;;;;-145.69;nan;52064.16;5074028;28;20191;-91
2023/06/25 04:53:41;;;;;;;6.10;3.83;;;;;;;-145.69;nan;52068.13;5054320;28;20206;-91
2023/06/25 04:56:07;;;;;;;6.65;4.22;;;;;;;-145.69;nan;52040.41;5054146;28;20229;-92
2023/06/25 04:58:35;;;;;;;8.83;4.40;;;;;;;-145.69;nan;52072.09;5056394;28;20294;-91
2023/06/25 05:01:02;;;;;;;6.93;4.13;;;;;;;-145.69;nan;52040.41;5058300;28;20223;-91
2023/06/25 05:03:29;;;;;;;8.20;3.75;;;;;;;-145.69;nan;52072.09;5058360;28;20281;-91
2023/06/25 05:05:57;;;;;;;6.20;4.10;;;;;;;-145.69;nan;52056.25;5078638;28;20282;-90
2023/06/25 05:08:24;;;;;;;7.03;4.20;;;;;;;-145.69;nan;52052.28;5078060;28;20384;-90
2023/06/25 05:10:51;;;;;;;10.30;4.40;;;;;;;-145.69;nan;52070.09;5078140;28;20211;-89
2023/06/25 05:13:17;;;;;;;7.13;4.25;;;;;;;-145.69;nan;52044.38;5078208;28;20289;-89
2023/06/25 05:15:44;;;;;;;9.45;4.55;;;;;;;-145.69;nan;52062.19;5078211;28;20293;-89
2023/06/25 05:18:11;;;;;;;5.85;3.83;;;;;;;-145.69;nan;52083.97;5077913;28;20209;-90
2023/06/25 05:20:38;;;;;;;6.07;3.75;;;;;;;-145.69;nan;52080.00;5077730;28;20669;-91
2023/06/25 05:23:07;;;;;;;6.03;4.05;;;;;;;-145.69;nan;52076.03;5078118;28;20741;-90
2023/06/25 05:25:34;;;;;;;6.55;4.05;;;;;;;-145.69;nan;52068.13;5078263;28;20202;-89
2023/06/25 05:28:02;;;;;;;6.72;4.05;;;;;;;-145.69;nan;52056.25;5077639;28;20191;-88
2023/06/25 05:30:29;;;;;;;7.90;3.97;;;;;;;-145.69;nan;52038.44;5077797;28;20672;-89
2023/06/25 05:32:56;;;;;;;6.63;3.67;;;;;;;-145.69;nan;52030.50;5077320;28;20202;-88
2023/06/25 05:35:23;;;;;;;6.70;3.60;;;;;;;-145.69;nan;52022.59;5077493;28;20225;-88
2023/06/25 05:37:49;;;;;;;10.75;3.72;;;;;;;-145.69;nan;52032.47;5077550;28;20202;-90
2023/06/25 05:40:18;;;;;;;6.30;4.10;;;;;;;-145.69;nan;52028.53;5077626;28;20305;-90
2023/06/25 05:42:47;;;;;;;7.90;4.10;;;;;;;-145.69;nan;52048.31;5077464;28;20260;-89
2023/06/25 05:45:13;;;;;;;5.95;3.58;;;;;;;-145.69;nan;52026.53;5077389;28;20199;-90
2023/06/25 05:47:40;;;;;;;8.90;4.18;;;;;;;-145.69;nan;52087.94;5077481;28;20211;-89
2023/06/25 05:50:07;;;;;;;6.25;3.95;;;;;;;-145.69;nan;52036.44;5076864;28;20287;-89
2023/06/25 05:52:34;;;;;;;6.53;3.70;;;;;;;-145.69;nan;52048.31;5077015;28;20220;-90
2023/06/25 05:55:01;;;;;;;6.05;3.70;;;;;;;-145.69;nan;52032.47;5076922;28;20204;-89
2023/06/25 05:57:29;;;;;;;6.15;4.20;;;;;;;-145.69;nan;52010.69;5076167;28;20210;-89
2023/06/25 05:59:55;;;;;;;7.03;3.80;;;;;;;-145.69;nan;52048.31;5076815;28;20213;-89
2023/06/25 06:02:22;;;;;;;5.70;3.72;;;;;;;-145.69;nan;52004.75;5077208;28;20199;-90
2023/06/25 06:04:48;;;;;;;5.88;3.90;;;;;;;-145.69;nan;52024.56;5076758;28;20223;-89
2023/06/25 06:07:17;;;;;;;5.88;3.42;;;;;;;-145.69;nan;52022.59;5076886;28;20199;-90
2023/06/25 06:09:45;;;;;;;6.45;3.67;;;;;;;-145.69;nan;52028.53;5076826;28;20293;-89
2023/06/25 06:12:11;;;;;;;7.68;3.67;;;;;;;-145.69;nan;52008.72;5077119;28;20550;-89
2023/06/25 06:14:40;;;;;;;7.30;3.85;;;;;;;-145.69;nan;52028.53;5076740;28;20209;-90
2023/06/25 06:17:06;;;;;;;6.13;3.92;;;;;;;-145.69;nan;52018.63;5076493;28;20207;-89
2023/06/25 06:19:33;;;;;;;10.10;3.88;;;;;;;-145.69;nan;52024.56;5076905;28;20553;-90
2023/06/25 06:22:00;;;;;;;5.65;3.88;;;;;;;-145.69;nan;52026.53;5076208;28;20633;-89
2023/06/25 06:24:27;;;;;;;8.35;3.75;;;;;;;-145.69;nan;52028.53;5076956;28;20233;-90
2023/06/25 06:26:54;;;;;;;6.72;3.90;;;;;;;-145.69;nan;52034.47;5076594;28;20257;-89
2023/06/25 06:29:20;;;;;;;6.03;3.90;;;;;;;-145.69;nan;52024.56;5076537;28;20553;-89
2023/06/25 06:31:49;;;;;;;6.80;4.00;;;;;;;-145.69;nan;52004.75;5076274;28;20209;-90
2023/06/25 06:34:15;;;;;;;6.65;3.95;;;;;;;-145.69;nan;52034.47;5076197;28;20661;-90
2023/06/25 06:36:42;;;;;;;5.28;3.60;;;;;;;-145.69;nan;52028.53;5075947;28;20294;-89
2023/06/25 06:39:08;;;;;;;5.10;4.10;;;;;;;-145.69;nan;52004.75;5074785;28;20198;-89
2023/06/25 06:41:35;;;;;;;7.35;4.60;;;;;;;-145.69;nan;52026.53;5074423;28;20567;-88
2023/06/25 06:44:11;;;;;;;6.82;4.00;;;;;;;-145.69;nan;52030.50;5075805;28;20222;-89
2023/06/25 06:46:37;;;;;;;8.95;3.78;;;;;;;-145.69;nan;52012.69;5076096;28;20599;-90
2023/06/25 06:49:05;;;;;;;5.18;3.53;;;;;;;-145.69;nan;52012.69;5075837;28;20585;-89
2023/06/25 06:51:32;;;;;;;8.52;3.78;;;;;;;-145.69;nan;52018.63;5075835;28;20199;-91
2023/06/25 06:53:59;;;;;;;6.68;2.92;;;;;;;-145.69;nan;51973.06;5075735;28;20195;-89
2023/06/25 06:56:25;;;;;;;8.25;3.47;;;;;;;-145.69;nan;52004.75;5076027;28;20606;-88
2023/06/25 06:58:52;;;;;;;5.32;3.50;;;;;;;-145.69;nan;51988.91;5075781;28;20290;-88
2023/06/25 07:01:18;;;;;;;4.60;3.08;;;;;;;-145.69;nan;51988.91;5075766;28;20199;-88
2023/06/25 07:03:45;;;;;;;5.63;3.45;;;;;;;-145.69;nan;52012.69;5075967;28;20257;-89
2023/06/25 07:06:13;;;;;;;9.68;4.05;;;;;;;-145.69;nan;52012.69;5075701;28;20222;-86
2023/06/25 07:08:39;;;;;;;5.97;3.38;;;;;;;-145.69;nan;51992.88;5075646;28;20289;-88
2023/06/25 07:11:06;;;;;;;6.72;3.67;;;;;;;-145.69;nan;51996.84;5075469;28;20198;-88
2023/06/25 07:13:33;;;;;;;7.75;3.40;;;;;;;-145.69;nan;51969.13;5075913;28;20213;-89
2023/06/25 07:16:00;;;;;;;5.97;3.30;;;;;;;-145.69;nan;51965.16;5075518;28;20669;-88
2023/06/25 07:18:26;;;;;;;6.90;3.10;;;;;;;-145.69;nan;51953.28;5075388;28;20206;-89
2023/06/25 07:20:53;;;;;;;8.20;3.70;;;;;;;-145.69;nan;51981.00;5073981;28;20443;-85
2023/06/25 07:23:21;;;;;;;6.05;3.45;;;;;;;-145.69;nan;51973.06;5074929;28;20201;-88
2023/06/25 07:25:48;;;;;;;6.00;3.55;;;;;;;-145.69;nan;51992.88;5074886;28;20284;-88
2023/06/25 07:28:14;;;;;;;6.57;3.28;;;;;;;-145.69;nan;51977.03;5075060;28;20199;-89
2023/06/25 07:30:43;;;;;;;5.78;3.35;;;;;;;-145.69;nan;51973.06;5075634;28;20203;-89
2023/06/25 07:33:09;;;;;;;5.20;3.28;;;;;;;-145.69;nan;51986.94;5075189;28;20206;-87
2023/06/25 07:35:36;;;;;;;6.53;3.38;;;;;;;-145.69;nan;51988.91;5075320;28;20210;-88
2023/06/25 07:38:03;;;;;;;4.90;3.40;;;;;;;-145.69;nan;51981.00;5074544;28;20313;-86
2023/06/25 07:40:31;;;;;;;4.82;2.88;;;;;;;-145.69;nan;51986.94;5074635;28;20198;-89
2023/06/25 07:42:57;;;;;;;4.57;3.45;;;;;;;-145.69;nan;51933.47;5075008;28;20563;-87
2023/06/25 07:45:24;;;;;;;7.20;3.83;;;;;;;-145.69;nan;52022.59;5074448;28;20226;-88
2023/06/25 07:47:50;;;;;;;5.97;3.70;;;;;;;-145.69;nan;51979.03;5074600;28;20649;-86
2023/06/25 07:50:17;;;;;;;5.32;3.05;;;;;;;-145.69;nan;51981.00;5074456;28;20313;-87
2023/06/25 07:52:43;;;;;;;4.90;3.40;;;;;;;-145.69;nan;51981.00;5073991;28;20553;-85
2023/06/25 07:55:10;;;;;;;5.07;3.17;;;;;;;-145.69;nan;51979.03;5073972;28;20195;-86
2023/06/25 07:57:38;;;;;;;5.45;3.53;;;;;;;-145.69;nan;51977.03;5066950;28;20449;-85
2023/06/25 08:00:05;;;;;;;4.97;3.05;;;;;;;-145.69;nan;51994.88;5067014;28;20198;-84
2023/06/25 08:02:35;;;;;;;6.72;3.17;;;;;;;-145.69;nan;51977.03;5073486;28;20669;-85
2023/06/25 08:05:01;;;;;;;7.15;3.30;;;;;;;-145.69;nan;51939.41;5073391;28;20215;-86
2023/06/25 08:07:28;;;;;;;5.68;3.38;;;;;;;-145.69;nan;51949.31;5062525;28;20210;-87
2023/06/25 08:09:54;;;;;;;5.97;3.50;;;;;;;-145.69;nan;51965.16;5061613;28;20285;-87
2023/06/25 08:12:21;;;;;;;7.40;3.05;;;;;;;-145.69;nan;51979.03;5074305;28;20195;-88
2023/06/25 08:14:49;;;;;;;4.90;3.20;;;;;;;-145.69;nan;51979.03;5074252;28;20582;-88
2023/06/25 08:17:16;;;;;;;6.20;3.55;;;;;;;-145.69;nan;51979.03;5073818;28;20230;-88
2023/06/25 08:19:42;;;;;;;5.30;3.53;;;;;;;-145.69;nan;51977.03;5074200;28;20210;-89
2023/06/25 08:22:09;;;;;;;9.23;4.10;;;;;;;-145.69;nan;51973.06;5073763;28;20202;-84
2023/06/25 08:24:35;;;;;;;4.68;3.30;;;;;;;-145.69;nan;51953.28;5073477;28;20222;-87
2023/06/25 08:27:02;;;;;;;6.05;3.55;;;;;;;-145.69;nan;51941.41;5074083;28;20203;-87
2023/06/25 08:29:29;;;;;;;5.05;3.42;;;;;;;-145.69;nan;51971.09;5073168;28;20195;-85
2023/06/25 08:31:57;;;;;;;5.85;3.65;;;;;;;-145.69;nan;51953.28;5072797;28;20442;-87
2023/06/25 08:34:23;;;;;;;8.38;3.58;;;;;;;-145.69;nan;51937.44;5073700;28;20293;-86
2023/06/25 08:36:50;;;;;;;8.38;3.70;;;;;;;-145.69;nan;51943.38;5073040;28;20238;-86
2023/06/25 08:39:17;;;;;;;6.07;4.07;;;;;;;-145.69;nan;51951.28;5073403;28;20285;-86
2023/06/25 08:41:43;;;;;;;7.03;3.78;;;;;;;-145.69;nan;51951.28;5073229;28;20199;-85
2023/06/25 08:44:10;;;;;;;5.45;3.38;;;;;;;-145.69;nan;51951.28;5073286;28;20214;-86
2023/06/25 08:46:38;;;;;;;5.82;3.65;;;;;;;-145.69;nan;51947.34;5073481;28;20546;-87
2023/06/25 08:49:06;;;;;;;5.35;3.88;;;;;;;-145.69;nan;51923.56;5073297;28;20235;-86
2023/06/25 08:51:36;;;;;;;5.70;3.35;;;;;;;-145.69;nan;51931.50;5073432;28;20199;-88
2023/06/25 08:54:03;;;;;;;5.82;3.65;;;;;;;-145.69;nan;51949.31;5073569;28;20210;-87
2023/06/25 08:56:29;;;;;;;5.97;3.50;;;;;;;-145.69;nan;51937.44;5074430;28;20209;-88
2023/06/25 08:58:56;;;;;;;6.15;3.60;;;;;;;-145.69;nan;51931.50;5073819;28;20199;-86
2023/06/25 09:01:22;;;;;;;5.45;3.50;;;;;;;-145.69;nan;51955.25;5072820;28;20195;-87
2023/06/25 09:03:53;;;;;;;12.25;3.80;;;;;;;-145.69;nan;51965.16;5073317;28;20210;-84
2023/06/25 09:06:22;;;;;;;5.25;3.30;;;;;;;-145.69;nan;51965.16;5072900;28;20281;-87
2023/06/25 09:08:48;;;;;;;6.97;4.00;;;;;;;-145.69;nan;51909.72;5073277;28;20732;-84
2023/06/25 09:11:15;;;;;;;4.97;3.55;;;;;;;-145.69;nan;51935.47;5073382;28;20202;-87
2023/06/25 09:13:41;;;;;;;6.88;3.95;;;;;;;-145.69;nan;51953.28;5072902;28;20203;-86
2023/06/25 09:16:10;;;;;;;6.85;4.30;;;;;;;-145.69;nan;51933.47;5073086;28;20213;-86
2023/06/25 09:18:36;;;;;;;5.18;3.53;;;;;;;-145.69;nan;51929.50;5073242;28;20199;-87
2023/06/25 09:21:05;;;;;;;5.32;3.50;;;;;;;-145.69;nan;51931.50;5072847;28;20207;-85
2023/06/25 09:23:35;;;;;;;7.95;4.65;;;;;;;-145.69;nan;51929.50;5073083;28;20199;-86
2023/06/25 09:26:05;;;;;;;7.47;4.18;;;;;;;-145.69;nan;51931.50;5072372;28;20234;-85
2023/06/25 09:28:32;;;;;;;6.18;3.75;;;;;;;-145.69;nan;51925.56;5072525;28;20289;-86
2023/06/25 09:30:59;;;;;;;5.78;3.30;;;;;;;-145.69;nan;51913.69;5072398;28;20194;-85
2023/06/25 09:33:33;;;;;;;6.63;3.53;;;;;;;-145.69;nan;51897.84;5072893;28;20203;-86
2023/06/25 09:36:01;;;;;;;9.57;4.30;;;;;;;-145.69;nan;51943.38;5072331;28;20249;-84
2023/06/25 09:38:27;;;;;;;6.35;3.72;;;;;;;-145.69;nan;51935.47;5072759;28;20197;-86
2023/06/25 09:40:58;;;;;;;6.88;3.90;;;;;;;-145.69;nan;51945.34;5072808;28;20230;-86
2023/06/25 09:43:25;;;;;;;6.10;3.63;;;;;;;-145.69;nan;51905.75;5072539;28;20210;-86
2023/06/25 09:45:53;;;;;;;7.20;3.78;;;;;;;-145.69;nan;51895.84;5075617;28;20249;-84
2023/06/25 09:48:24;;;;;;;5.57;3.47;;;;;;;-145.69;nan;51925.56;5075984;28;20209;-85
2023/06/25 09:50:54;;;;;;;5.65;3.25;;;;;;;-145.69;nan;51921.59;5075288;28;20237;-84
2023/06/25 09:53:25;;;;;;;6.28;4.07;;;;;;;-145.69;nan;51943.38;5074583;28;20206;-84
2023/06/25 09:55:53;;;;;;;5.00;3.47;;;;;;;-145.69;nan;51903.78;5069479;28;20225;-85
2023/06/25 09:58:22;;;;;;;5.63;3.88;;;;;;;-145.69;nan;51945.34;5075589;28;20203;-85
2023/06/25 10:00:54;;;;;;;7.18;3.67;;;;;;;-145.69;nan;51921.59;5075535;28;20684;-85
2023/06/25 10:03:22;;;;;;;5.15;3.67;;;;;;;-145.69;nan;51933.47;5076158;28;20199;-85
2023/06/25 10:05:51;;;;;;;5.45;3.78;;;;;;;-145.69;nan;51893.88;5075436;28;20226;-84
2023/06/25 10:08:18;;;;;;;7.28;3.70;;;;;;;-145.69;nan;51889.91;5075635;28;20191;-84
2023/06/25 10:10:56;;;;;;;6.05;3.47;;;;;;;-145.69;nan;51921.59;5075937;28;20264;-86
2023/06/25 10:13:24;;;;;;;7.38;3.80;;;;;;;-145.69;nan;51909.72;5075805;28;20660;-85
2023/06/25 10:15:58;;;;;;;7.03;3.78;;;;;;;-145.69;nan;51913.69;5075709;28;20207;-85
2023/06/25 10:18:24;;;;;;;4.65;3.17;;;;;;;-145.69;nan;51905.75;5075615;28;20294;-86
2023/06/25 10:20:51;;;;;;;6.07;3.83;;;;;;;-145.69;nan;51955.25;5075637;28;20221;-84
2023/06/25 10:23:26;;;;;;;6.60;4.22;;;;;;;-145.69;nan;51933.47;5075297;28;20757;-84
2023/06/25 10:25:53;;;;;;;5.50;3.53;;;;;;;-145.69;nan;51883.97;5075003;28;20290;-84
2023/06/25 10:28:28;;;;;;;5.88;3.38;;;;;;;-145.69;nan;51905.75;5075262;28;20195;-85
2023/06/25 10:30:56;;;;;;;5.80;3.88;;;;;;;-145.69;nan;51905.75;5074806;28;20564;-85
2023/06/25 10:33:23;;;;;;;7.32;3.78;;;;;;;-145.69;nan;51891.88;5075236;28;20298;-85
2023/06/25 10:35:56;;;;;;;6.97;3.42;;;;;;;-145.69;nan;51921.59;5075211;28;20229;-86
2023/06/25 10:38:23;;;;;;;5.60;3.65;;;;;;;-145.69;nan;51893.88;5075220;28;20206;-84
2023/06/25 10:40:50;;;;;;;7.28;3.63;;;;;;;-145.69;nan;51901.78;5075000;28;20226;-86
2023/06/25 10:43:18;;;;;;;8.63;3.50;;;;;;;-145.69;nan;51885.94;5075161;28;20198;-85
2023/06/25 10:45:49;;;;;;;6.05;3.63;;;;;;;-145.69;nan;51915.66;5075189;28;20238;-85
2023/06/25 10:48:20;;;;;;;7.55;3.92;;;;;;;-145.69;nan;51921.59;5075009;28;20206;-84
2023/06/25 10:50:50;;;;;;;5.97;3.63;;;;;;;-145.69;nan;51891.88;5074418;28;20273;-84
2023/06/25 10:53:18;;;;;;;5.50;3.67;;;;;;;-145.69;nan;51909.72;5074959;28;20522;-85
2023/06/25 10:55:49;;;;;;;5.78;3.53;;;;;;;-145.69;nan;51874.06;5073344;28;20207;-84
2023/06/25 10:58:16;;;;;;;7.00;4.07;;;;;;;-145.69;nan;51901.78;5074839;28;20645;-85
2023/06/25 11:00:44;;;;;;;8.07;3.80;;;;;;;-145.69;nan;51889.91;5074562;28;20197;-85
2023/06/25 11:03:10;;;;;;;6.15;3.95;;;;;;;-145.69;nan;51909.72;5074936;28;20233;-85
2023/06/25 11:05:40;;;;;;;7.50;4.40;;;;;;;-145.69;nan;51882.00;5074513;28;20215;-85
2023/06/25 11:08:08;;;;;;;5.10;3.30;;;;;;;-145.69;nan;51874.06;5074720;28;20206;-85
2023/06/25 11:10:36;;;;;;;5.75;4.00;;;;;;;-145.69;nan;51880.00;5074226;28;20620;-84
2023/06/25 11:13:03;;;;;;;6.00;3.90;;;;;;;-145.69;nan;51901.78;5074302;28;20203;-85
2023/06/25 11:15:31;;;;;;;5.30;3.90;;;;;;;-145.69;nan;51885.94;5074090;28;20203;-85
2023/06/25 11:17:58;;;;;;;8.32;3.97;;;;;;;-145.69;nan;51880.00;5074367;28;20213;-85
2023/06/25 11:20:25;;;;;;;7.32;4.30;;;;;;;-145.69;nan;51913.69;5074265;28;20208;-82
2023/06/25 11:22:54;;;;;;;6.88;3.92;;;;;;;-145.69;nan;51891.88;5074174;28;20294;-85
2023/06/25 11:25:21;;;;;;;8.07;4.00;;;;;;;-145.69;nan;51870.13;5073638;28;20229;-84
2023/06/25 11:27:48;;;;;;;5.50;3.78;;;;;;;-145.69;nan;51880.00;5074449;28;20215;-86
2023/06/25 11:30:15;;;;;;;7.28;4.15;;;;;;;-145.69;nan;51909.72;5074028;28;20195;-85
2023/06/25 11:32:42;;;;;;;6.63;4.22;;;;;;;-145.69;nan;51903.78;5074430;28;20201;-84
2023/06/25 11:35:10;;;;;;;6.53;3.92;;;;;;;-145.69;nan;51901.78;5073794;28;20285;-84